Time;durP1;ratioP1;P1;durP2;ratioP2;P2;SDS_P1;SDS_P2;PMS_P1;PMS_P2;Temp;Humidity;BMP_temperature;BMP_pressure;BME280_temperature;BME280_humidity;BME280_pressure;Samples;Min_cycle;Max_cycle;Signal;HPM_P1;HPM_P2
2022/12/18 00:01:32;;;;;;;40.65;16.88;;;;;;;-3.13;81.36;102797.03;5052081;28;20036;-62
2022/12/18 00:03:59;;;;;;;40.03;17.42;;;;;;;-3.14;81.52;102796.88;5052232;28;20036;-64
2022/12/18 00:06:26;;;;;;;42.20;18.27;;;;;;;-3.10;82.09;102784.41;5052366;28;20029;-62
2022/12/18 00:08:52;;;;;;;39.83;17.27;;;;;;;-3.04;81.20;102786.66;5054634;28;20040;-62
2022/12/18 00:11:20;;;;;;;45.65;18.85;;;;;;;-3.09;80.79;102788.81;5055783;28;20163;-63
2022/12/18 00:13:47;;;;;;;41.25;18.40;;;;;;;-3.16;80.63;102795.84;5055752;28;20466;-63
2022/12/18 00:16:15;;;;;;;48.13;19.05;;;;;;;-3.29;80.48;102781.72;5055625;28;20124;-63
2022/12/18 00:18:41;;;;;;;44.13;17.73;;;;;;;-3.38;80.41;102777.34;5038255;28;20029;-63
2022/12/18 00:21:10;;;;;;;39.17;17.83;;;;;;;-3.54;80.70;102768.06;5055537;28;20025;-63
2022/12/18 00:23:36;;;;;;;44.95;18.02;;;;;;;-3.75;80.02;102754.72;5055608;28;20486;-63
2022/12/18 00:26:04;;;;;;;42.28;18.25;;;;;;;-3.94;80.71;102759.72;5055579;28;20024;-62
2022/12/18 00:28:29;;;;;;;43.88;17.50;;;;;;;-4.05;81.69;102759.56;5055340;28;20111;-64
2022/12/18 00:31:07;;;;;;;46.05;18.27;;;;;;;-4.05;82.72;102756.09;5055502;28;20175;-63
2022/12/18 00:33:33;;;;;;;38.13;17.23;;;;;;;-3.89;83.67;102762.03;5055178;28;20024;-62
2022/12/18 00:36:26;;;;;;;42.80;18.85;;;;;;;-3.68;82.98;102754.53;5055242;28;20364;-62
2022/12/18 00:38:54;;;;;;;41.72;17.65;;;;;;;-3.56;81.82;102748.00;5054731;28;20052;-62
2022/12/18 00:44:06;;;;;;;37.53;16.85;;;;;;;-3.46;80.88;102749.84;5055215;28;20052;-63
2022/12/18 00:46:32;;;;;;;43.05;16.55;;;;;;;-3.44;81.31;102749.22;5055216;28;20425;-62
2022/12/18 00:48:58;;;;;;;39.30;17.33;;;;;;;-3.42;81.04;102747.69;5055138;28;20471;-62
2022/12/18 00:51:24;;;;;;;48.58;18.00;;;;;;;-3.36;80.75;102748.28;5037037;28;20075;-63
2022/12/18 00:53:49;;;;;;;40.20;17.63;;;;;;;-3.35;80.02;102747.50;5037407;28;20466;-63
2022/12/18 00:56:15;;;;;;;43.03;17.77;;;;;;;-3.32;79.62;102741.75;5054875;28;20509;-62
2022/12/18 00:58:40;;;;;;;40.42;17.52;;;;;;;-3.33;79.79;102737.34;5055000;28;20020;-62
2022/12/18 01:01:06;;;;;;;39.50;16.85;;;;;;;-3.35;79.08;102739.75;5036956;28;20024;-63
2022/12/18 01:03:32;;;;;;;43.65;17.75;;;;;;;-3.40;79.33;102758.19;5054682;28;20021;-62
2022/12/18 01:05:58;;;;;;;36.33;16.08;;;;;;;-3.40;79.73;102769.41;5054624;28;20523;-62
2022/12/18 01:08:23;;;;;;;37.28;15.35;;;;;;;-3.37;79.58;102761.06;5054782;28;20033;-62
2022/12/18 01:10:48;;;;;;;41.55;17.15;;;;;;;-3.33;79.50;102756.34;5054596;28;20033;-62
2022/12/18 01:13:14;;;;;;;39.38;18.30;;;;;;;-3.38;78.60;102769.59;5054710;28;20475;-62
2022/12/18 01:15:39;;;;;;;36.38;16.60;;;;;;;-3.45;79.98;102775.81;5054461;28;20021;-61
2022/12/18 01:18:06;;;;;;;41.50;16.90;;;;;;;-3.48;80.13;102769.44;5054234;28;20033;-61
2022/12/18 01:20:31;;;;;;;40.10;17.38;;;;;;;-3.48;79.84;102772.00;5054353;28;20041;-62
2022/12/18 01:22:57;;;;;;;40.17;17.15;;;;;;;-3.49;79.87;102776.28;5054638;28;20039;-62
2022/12/18 01:25:22;;;;;;;36.22;16.35;;;;;;;-3.48;80.38;102778.09;5054357;28;20021;-62
2022/12/18 01:27:47;;;;;;;39.75;16.75;;;;;;;-3.44;79.81;102774.13;5054300;28;20063;-62
2022/12/18 01:30:13;;;;;;;39.35;16.92;;;;;;;-3.43;79.05;102773.38;5054340;28;20061;-62
2022/12/18 01:32:38;;;;;;;39.35;16.33;;;;;;;-3.40;79.83;102768.50;5036002;28;20041;-62
2022/12/18 01:35:05;;;;;;;42.17;18.13;;;;;;;-3.35;79.24;102773.34;5054200;28;20086;-62
2022/12/18 01:37:30;;;;;;;35.75;15.60;;;;;;;-3.30;78.71;102767.00;5054170;28;20029;-62
2022/12/18 01:39:56;;;;;;;40.35;16.52;;;;;;;-3.22;78.75;102753.88;5054408;28;20470;-62
2022/12/18 01:42:21;;;;;;;39.35;16.65;;;;;;;-3.22;78.83;102762.53;5036004;28;20102;-61
2022/12/18 01:44:52;;;;;;;37.47;15.35;;;;;;;-3.20;78.90;102757.53;5054118;28;20025;-62
2022/12/18 01:47:45;;;;;;;37.85;17.00;;;;;;;-3.29;77.85;102765.31;5036204;28;20107;-62
2022/12/18 01:50:21;;;;;;;34.30;15.50;;;;;;;-3.37;77.88;102759.38;5053689;28;20029;-62
2022/12/18 01:52:59;;;;;;;34.42;15.75;;;;;;;-3.40;79.27;102758.19;5053695;28;20049;-61
2022/12/18 01:55:27;;;;;;;39.80;16.52;;;;;;;-3.43;77.96;102765.63;5053830;28;20104;-61
2022/12/18 01:57:55;;;;;;;41.55;15.82;;;;;;;-3.44;78.44;102762.13;5053804;28;20091;-62
2022/12/18 02:00:23;;;;;;;37.85;15.55;;;;;;;-3.42;78.60;102763.22;5053575;28;20033;-62
2022/12/18 02:02:49;;;;;;;41.33;15.93;;;;;;;-3.46;79.02;102760.19;5053416;28;20025;-61
2022/12/18 02:05:18;;;;;;;40.15;16.67;;;;;;;-3.46;78.78;102761.09;5053582;28;20029;-61
2022/12/18 02:08:07;;;;;;;35.22;15.25;;;;;;;-3.45;78.89;102754.25;5053611;28;20056;-61
2022/12/18 02:10:46;;;;;;;35.00;16.15;;;;;;;-3.44;78.23;102754.38;5053490;28;20037;-64
2022/12/18 02:13:14;;;;;;;35.78;15.73;;;;;;;-3.47;78.29;102751.47;5053404;28;20429;-61
2022/12/18 02:16:11;;;;;;;34.97;15.90;;;;;;;-3.43;78.00;102744.94;5053514;28;20474;-62
2022/12/18 02:18:41;;;;;;;34.80;15.15;;;;;;;-3.45;78.33;102743.91;5052753;28;20084;-63
2022/12/18 02:21:12;;;;;;;33.38;14.90;;;;;;;-3.48;78.53;102743.59;5035350;28;20119;-62
2022/12/18 02:23:37;;;;;;;37.13;15.88;;;;;;;-3.48;78.02;102743.59;5053300;28;20032;-61
2022/12/18 02:26:15;;;;;;;36.80;15.95;;;;;;;-3.49;77.57;102745.28;5053571;28;20037;-62
2022/12/18 02:29:07;;;;;;;34.00;16.08;;;;;;;-3.49;78.29;102745.28;5035425;28;20098;-62
2022/12/18 02:31:42;;;;;;;33.20;14.75;;;;;;;-3.50;77.63;102751.22;5045632;28;20045;-62
2022/12/18 02:34:09;;;;;;;35.92;15.40;;;;;;;-3.52;77.64;102750.13;5053286;28;20036;-62
2022/12/18 02:36:37;;;;;;;34.10;15.65;;;;;;;-3.53;77.13;102749.22;5052951;28;20039;-62
2022/12/18 02:39:07;;;;;;;35.22;16.30;;;;;;;-3.52;78.00;102739.78;5053184;28;20159;-62
2022/12/18 02:41:34;;;;;;;31.67;13.38;;;;;;;-3.49;78.30;102745.28;5053299;28;20400;-62
2022/12/18 02:44:02;;;;;;;32.50;15.13;;;;;;;-3.53;77.52;102743.16;5052542;28;20096;-62
2022/12/18 02:46:27;;;;;;;33.10;15.75;;;;;;;-3.60;76.97;102732.97;5035082;28;20108;-62
2022/12/18 02:49:01;;;;;;;34.78;15.80;;;;;;;-3.73;76.98;102732.53;5052876;28;20104;-62
2022/12/18 02:51:38;;;;;;;32.25;14.07;;;;;;;-3.82;77.99;102725.69;5052894;28;20124;-62
2022/12/18 02:54:19;;;;;;;33.33;14.57;;;;;;;-3.81;77.84;102722.38;5052826;28;20037;-62
2022/12/18 02:57:15;;;;;;;35.58;15.07;;;;;;;-3.78;77.37;102725.25;5034879;28;20021;-62
2022/12/18 02:59:54;;;;;;;32.95;15.30;;;;;;;-3.76;77.98;102727.09;5052712;28;20033;-61
2022/12/18 03:02:28;;;;;;;30.90;14.55;;;;;;;-3.72;78.11;102730.13;5052394;28;20057;-62
2022/12/18 03:05:03;;;;;;;32.65;14.35;;;;;;;-3.65;78.23;102726.44;5052792;28;20098;-61
2022/12/18 03:07:41;;;;;;;30.10;13.43;;;;;;;-3.61;77.76;102720.81;5052523;28;20033;-62
2022/12/18 03:10:11;;;;;;;32.67;14.13;;;;;;;-3.61;77.41;102710.47;5035091;28;20041;-63
2022/12/18 03:12:44;;;;;;;28.35;13.75;;;;;;;-3.64;76.58;102705.94;5052660;28;20032;-63
2022/12/18 03:15:19;;;;;;;29.23;12.95;;;;;;;-3.66;76.89;102704.88;5052683;28;20017;-62
2022/12/18 03:17:49;;;;;;;28.58;12.90;;;;;;;-3.66;76.68;102703.97;5052612;28;20094;-62
2022/12/18 03:20:18;;;;;;;28.65;13.10;;;;;;;-3.70;76.83;102701.84;5052444;28;20077;-62
2022/12/18 03:22:49;;;;;;;31.63;12.77;;;;;;;-3.73;76.49;102702.44;5052491;28;20117;-62
2022/12/18 03:25:17;;;;;;;28.55;13.50;;;;;;;-3.75;76.48;102700.50;5052543;28;20100;-62
2022/12/18 03:27:48;;;;;;;25.95;12.40;;;;;;;-3.78;76.14;102708.84;5052385;28;20028;-62
2022/12/18 03:30:15;;;;;;;25.83;13.40;;;;;;;-3.82;75.96;102714.47;5052651;28;20036;-62
2022/12/18 03:33:01;;;;;;;28.98;12.45;;;;;;;-3.86;75.94;102713.25;5052260;28;20088;-62
2022/12/18 03:35:31;;;;;;;27.73;12.20;;;;;;;-3.86;76.29;102707.16;5052020;28;20331;-61
2022/12/18 03:37:57;;;;;;;27.67;12.23;;;;;;;-3.88;76.32;102708.72;5052466;28;20075;-61
2022/12/18 03:40:34;;;;;;;23.65;12.32;;;;;;;-3.87;76.54;102702.78;5052193;28;20386;-62
2022/12/18 03:43:09;;;;;;;21.83;11.32;;;;;;;-3.91;76.10;102695.47;5055038;28;20049;-62
2022/12/18 03:45:41;;;;;;;24.10;11.48;;;;;;;-3.95;76.14;102701.09;5056494;28;20059;-61
2022/12/18 03:48:17;;;;;;;;;;;;;;;-3.87;77.26;102702.78;5056714;28;20128;-61
2022/12/18 03:50:49;;;;;;;22.90;11.43;;;;;;;-3.91;76.66;102704.13;5056127;28;20400;-62
2022/12/18 03:53:27;;;;;;;25.52;11.32;;;;;;;-3.90;77.00;102690.47;5056216;28;20033;-61
2022/12/18 03:55:53;;;;;;;21.83;10.18;;;;;;;-3.89;76.86;102688.81;5056143;28;20391;-61
2022/12/18 03:58:24;;;;;;;28.23;11.73;;;;;;;-3.87;76.52;102685.59;5056122;28;20509;-62
2022/12/18 04:00:52;;;;;;;26.67;11.50;;;;;;;-3.87;76.35;102683.03;5056048;28;20467;-61
2022/12/18 04:03:19;;;;;;;25.75;11.77;;;;;;;-3.89;76.70;102673.31;5055698;28;20489;-62
2022/12/18 04:05:46;;;;;;;24.85;11.20;;;;;;;-3.89;76.96;102669.06;5055831;28;20025;-61
2022/12/18 04:08:13;;;;;;;23.17;10.98;;;;;;;-3.90;76.32;102656.88;5056059;28;20025;-61
2022/12/18 04:10:38;;;;;;;25.73;11.35;;;;;;;-3.86;76.29;102655.53;5055750;28;20506;-61
2022/12/18 04:13:04;;;;;;;23.70;11.10;;;;;;;-3.80;77.05;102656.13;5054706;28;20025;-62
2022/12/18 04:15:29;;;;;;;23.13;11.32;;;;;;;-3.88;76.21;102652.81;5055692;28;20394;-61
2022/12/18 04:17:54;;;;;;;22.40;11.50;;;;;;;-3.97;76.35;102656.16;5055419;28;20079;-61
2022/12/18 04:20:20;;;;;;;22.80;11.18;;;;;;;-3.99;76.34;102649.91;5055656;28;20386;-61
2022/12/18 04:22:47;;;;;;;27.00;11.38;;;;;;;-3.99;76.03;102657.66;5055757;28;20031;-62
2022/12/18 04:25:13;;;;;;;21.20;11.00;;;;;;;-4.00;76.29;102650.69;5038031;28;20078;-63
2022/12/18 04:27:38;;;;;;;26.08;11.25;;;;;;;-4.01;76.12;102639.47;5055641;28;20433;-62
2022/12/18 04:30:04;;;;;;;21.65;11.13;;;;;;;-4.06;76.40;102648.44;5055452;28;20444;-61
2022/12/18 04:32:30;;;;;;;21.42;10.13;;;;;;;-4.05;77.23;102651.16;5054976;28;20094;-62
2022/12/18 04:34:55;;;;;;;25.95;12.18;;;;;;;-4.20;77.13;102648.72;5055681;28;20029;-62
2022/12/18 04:37:21;;;;;;;23.90;10.50;;;;;;;-4.21;77.16;102647.81;5055216;28;20029;-62
2022/12/18 04:39:46;;;;;;;23.17;10.88;;;;;;;-4.16;76.62;102661.16;5055262;28;20501;-62
2022/12/18 04:42:12;;;;;;;19.85;10.43;;;;;;;-4.11;77.90;102666.06;5055100;28;20033;-61
2022/12/18 04:44:37;;;;;;;21.35;9.75;;;;;;;-4.03;77.51;102666.78;5055229;28;20033;-61
2022/12/18 04:47:02;;;;;;;20.35;10.13;;;;;;;-4.03;77.27;102664.19;5055125;28;20029;-62
2022/12/18 04:49:28;;;;;;;23.65;10.98;;;;;;;-4.08;76.56;102660.25;5055049;28;20033;-62
2022/12/18 04:51:53;;;;;;;21.75;10.45;;;;;;;-4.05;78.15;102671.81;5055045;28;20102;-61
2022/12/18 04:54:20;;;;;;;22.75;10.35;;;;;;;-4.01;77.50;102682.44;5054061;28;20021;-61
2022/12/18 04:56:46;;;;;;;23.88;10.23;;;;;;;-4.06;76.58;102682.91;5053723;28;20044;-62
2022/12/18 04:59:12;;;;;;;20.75;10.05;;;;;;;-4.12;77.23;102681.38;5054692;28;20031;-63
2022/12/18 05:01:37;;;;;;;18.58;9.68;;;;;;;-4.07;77.35;102691.41;5054789;28;20116;-62
2022/12/18 05:04:03;;;;;;;23.33;10.90;;;;;;;-4.03;76.95;102702.91;5054668;28;20029;-61
2022/12/18 05:06:29;;;;;;;19.58;9.63;;;;;;;-4.01;77.09;102692.78;5055041;28;20396;-62
2022/12/18 05:08:54;;;;;;;23.20;10.13;;;;;;;-3.97;77.16;102692.31;5054971;28;20486;-61
2022/12/18 05:11:19;;;;;;;22.60;10.10;;;;;;;-3.94;77.16;102698.69;5054579;28;20025;-62
2022/12/18 05:13:45;;;;;;;21.40;10.70;;;;;;;-3.90;76.99;102695.63;5020571;28;20028;-62
2022/12/18 05:16:11;;;;;;;22.75;10.80;;;;;;;-3.86;76.58;102694.25;5054527;28;20494;-61
2022/12/18 05:18:37;;;;;;;19.88;10.52;;;;;;;-3.85;75.90;102698.69;5054708;28;20033;-62
2022/12/18 05:21:03;;;;;;;19.90;10.20;;;;;;;-3.93;76.38;102691.84;5054775;28;20082;-61
2022/12/18 05:23:29;;;;;;;20.13;10.30;;;;;;;-3.97;76.21;102688.06;5054498;28;20028;-61
2022/12/18 05:25:57;;;;;;;18.98;9.23;;;;;;;-3.99;77.19;102688.66;5054494;28;20029;-61
2022/12/18 05:28:24;;;;;;;18.73;9.60;;;;;;;-3.97;76.92;102687.16;5054468;28;20406;-61
2022/12/18 05:30:51;;;;;;;19.25;9.27;;;;;;;-3.99;76.40;102678.31;5054068;28;20033;-61
2022/12/18 05:33:17;;;;;;;18.13;9.90;;;;;;;-4.00;77.22;102680.00;5054039;28;20063;-61
2022/12/18 05:35:43;;;;;;;18.33;10.15;;;;;;;-4.04;76.65;102678.78;5036661;28;20097;-62
2022/12/18 05:38:09;;;;;;;19.02;9.40;;;;;;;-4.05;76.37;102682.13;5054038;28;20067;-61
2022/12/18 05:40:35;;;;;;;19.48;9.40;;;;;;;-4.00;77.46;102684.25;5054137;28;20055;-61
2022/12/18 05:43:00;;;;;;;20.30;9.73;;;;;;;-3.99;77.42;102686.97;5053838;28;20083;-61
2022/12/18 05:45:25;;;;;;;19.48;9.68;;;;;;;-3.99;76.63;102678.31;5053978;28;20037;-61
2022/12/18 05:47:51;;;;;;;19.35;9.52;;;;;;;-4.02;76.83;102673.78;5036038;28;20032;-61
2022/12/18 05:50:16;;;;;;;20.10;9.57;;;;;;;-4.00;76.13;102663.59;5053879;28;20112;-60
2022/12/18 05:52:42;;;;;;;21.70;9.95;;;;;;;-4.00;76.80;102661.94;5053902;28;20486;-61
2022/12/18 05:55:07;;;;;;;20.58;10.85;;;;;;;-4.10;76.05;102652.38;5053863;28;20032;-61
2022/12/18 05:57:33;;;;;;;23.08;9.70;;;;;;;-4.14;76.37;102660.56;5053860;28;20577;-61
2022/12/18 05:59:58;;;;;;;19.77;9.70;;;;;;;-4.18;76.95;102657.53;5053458;28;20033;-61
2022/12/18 06:02:23;;;;;;;20.40;9.10;;;;;;;-4.22;75.82;102653.75;5053621;28;20109;-60
2022/12/18 06:04:49;;;;;;;20.95;9.70;;;;;;;-4.26;76.71;102661.94;5053465;28;20087;-62
2022/12/18 06:07:14;;;;;;;17.55;8.93;;;;;;;-4.25;77.20;102650.84;5053729;28;20107;-62
2022/12/18 06:09:39;;;;;;;18.08;9.70;;;;;;;-4.20;76.39;102652.22;5053548;28;20043;-61
2022/12/18 06:12:05;;;;;;;20.33;9.45;;;;;;;-4.15;76.78;102655.28;5035655;28;20029;-63
2022/12/18 06:14:31;;;;;;;16.90;8.48;;;;;;;-4.12;76.56;102658.13;5053396;28;20033;-62
2022/12/18 06:16:56;;;;;;;17.83;9.30;;;;;;;-4.11;76.68;102649.63;5053370;28;20075;-62
2022/12/18 06:19:21;;;;;;;18.05;9.55;;;;;;;-4.20;76.69;102649.63;5053410;28;20052;-61
2022/12/18 06:21:47;;;;;;;20.15;10.00;;;;;;;-4.25;77.19;102652.53;5053139;28;20021;-62
2022/12/18 06:24:12;;;;;;;18.25;9.73;;;;;;;-4.22;78.12;102656.31;5053414;28;20024;-62
2022/12/18 06:26:38;;;;;;;19.67;9.57;;;;;;;-4.18;77.94;102663.63;5053249;28;20124;-62
2022/12/18 06:29:04;;;;;;;19.02;9.40;;;;;;;-4.22;77.39;102661.47;5053191;28;20079;-62
2022/12/18 06:31:29;;;;;;;19.20;9.85;;;;;;;-4.29;77.47;102665.13;5053124;28;20478;-62
2022/12/18 06:33:55;;;;;;;18.42;9.60;;;;;;;-4.32;77.58;102667.41;5053006;28;20103;-62
2022/12/18 06:36:21;;;;;;;19.73;9.82;;;;;;;-4.31;77.44;102658.91;5053145;28;20368;-62
2022/12/18 06:38:46;;;;;;;18.63;9.73;;;;;;;-4.26;78.01;102661.94;5053026;28;20382;-61
2022/12/18 06:41:15;;;;;;;22.70;10.00;;;;;;;-4.26;78.03;102656.78;5053281;28;20029;-62
2022/12/18 06:43:40;;;;;;;19.85;9.98;;;;;;;-4.28;77.65;102661.81;5052609;28;20124;-62
2022/12/18 06:46:06;;;;;;;18.00;9.07;;;;;;;-4.27;78.36;102652.38;5052932;28;20063;-62
2022/12/18 06:48:32;;;;;;;19.58;10.55;;;;;;;-4.23;78.38;102651.03;5052847;28;20040;-62
2022/12/18 06:50:58;;;;;;;19.58;10.07;;;;;;;-4.20;78.19;102649.63;5053058;28;20033;-62
2022/12/18 06:53:23;;;;;;;19.30;9.73;;;;;;;-4.16;78.44;102644.00;5052844;28;20494;-62
2022/12/18 06:55:49;;;;;;;22.02;10.88;;;;;;;-4.13;78.03;102636.56;5052891;28;20557;-62
2022/12/18 06:58:15;;;;;;;18.48;9.95;;;;;;;-4.08;78.56;102644.78;5018548;28;20029;-62
2022/12/18 07:00:40;;;;;;;18.33;9.77;;;;;;;-4.09;77.75;102632.63;5053244;28;20538;-62
2022/12/18 07:03:06;;;;;;;17.63;9.30;;;;;;;-4.05;78.34;102640.81;5052570;28;20029;-61
2022/12/18 07:05:31;;;;;;;19.90;11.23;;;;;;;-4.04;77.53;102658.13;5051539;28;20029;-61
2022/12/18 07:07:58;;;;;;;20.38;10.48;;;;;;;-4.05;77.84;102639.91;5052668;28;20029;-62
2022/12/18 07:10:23;;;;;;;21.42;10.10;;;;;;;-4.17;77.33;102633.53;5052573;28;20079;-62
2022/12/18 07:12:48;;;;;;;20.67;11.18;;;;;;;-4.23;77.67;102627.81;5052668;28;20025;-62
2022/12/18 07:15:14;;;;;;;21.95;10.52;;;;;;;-4.34;78.07;102611.25;5034584;28;20017;-62
2022/12/18 07:17:39;;;;;;;20.88;10.48;;;;;;;-4.32;77.92;102618.38;5057261;28;20029;-61
2022/12/18 07:20:05;;;;;;;21.60;10.27;;;;;;;-4.40;78.47;102621.88;5059117;28;20523;-62
2022/12/18 07:22:30;;;;;;;16.98;9.68;;;;;;;-4.43;78.50;102616.41;5041399;28;20036;-61
2022/12/18 07:24:56;;;;;;;21.05;11.98;;;;;;;-4.45;78.53;102604.09;5059236;28;20025;-62
2022/12/18 07:27:22;;;;;;;19.17;10.05;;;;;;;-4.50;79.13;102602.75;5059125;28;20113;-62
2022/12/18 07:29:47;;;;;;;22.33;10.50;;;;;;;-4.54;79.40;102592.13;5058959;28;20089;-62
2022/12/18 07:32:13;;;;;;;21.20;10.18;;;;;;;-4.59;79.67;102585.59;5058886;28;20494;-62
2022/12/18 07:34:39;;;;;;;19.40;10.82;;;;;;;-4.57;79.28;102586.66;5059093;28;20490;-61
2022/12/18 07:37:04;;;;;;;20.08;10.05;;;;;;;-4.58;78.99;102589.09;5059357;28;20108;-61
2022/12/18 07:39:29;;;;;;;20.70;10.50;;;;;;;-4.57;79.73;102584.09;5059459;28;20437;-62
2022/12/18 07:44:39;;;;;;;21.33;10.85;;;;;;;-4.49;79.46;102579.69;5059373;28;20075;-61
2022/12/18 07:47:04;;;;;;;24.48;10.68;;;;;;;-4.59;79.74;102576.94;5058971;28;20550;-62
2022/12/18 07:49:30;;;;;;;20.83;10.63;;;;;;;-4.62;79.38;102567.25;5058943;28;20025;-61
2022/12/18 07:51:57;;;;;;;22.00;11.00;;;;;;;-4.57;80.07;102566.03;5058885;28;20029;-61
2022/12/18 07:54:23;;;;;;;21.33;10.38;;;;;;;-4.53;80.29;102557.84;5058980;28;20036;-61
2022/12/18 07:56:48;;;;;;;24.95;11.50;;;;;;;-4.56;79.80;102548.88;5058898;28;20029;-62
2022/12/18 07:59:14;;;;;;;23.73;11.93;;;;;;;-4.64;79.79;102542.06;5041124;28;20378;-61
2022/12/18 08:01:39;;;;;;;23.08;12.15;;;;;;;-4.79;81.18;102544.94;5058925;28;20104;-61
2022/12/18 08:04:05;;;;;;;18.58;9.32;;;;;;;-4.77;82.03;102547.66;5058718;28;20024;-61
2022/12/18 08:06:30;;;;;;;21.48;11.20;;;;;;;-4.72;81.17;102561.00;5058848;28;20029;-61
2022/12/18 08:08:56;;;;;;;21.30;10.85;;;;;;;-4.68;81.69;102564.06;5058862;28;20359;-61
2022/12/18 08:11:24;;;;;;;22.52;11.38;;;;;;;-4.56;82.21;102559.19;5040689;28;20167;-62
2022/12/18 08:13:49;;;;;;;20.50;10.27;;;;;;;-4.43;82.24;102557.06;5058731;28;20044;-61
2022/12/18 08:16:15;;;;;;;25.13;12.27;;;;;;;-4.33;82.08;102558.88;5041120;28;20378;-62
2022/12/18 08:18:40;;;;;;;23.65;11.32;;;;;;;-4.28;81.13;102563.75;5058720;28;20028;-61
2022/12/18 08:21:16;;;;;;;23.13;11.85;;;;;;;-4.22;80.86;102562.50;5058666;28;20039;-62
2022/12/18 08:23:42;;;;;;;23.70;12.07;;;;;;;-4.18;81.22;102562.94;5040728;28;20048;-61
2022/12/18 08:26:08;;;;;;;23.50;11.07;;;;;;;-4.14;81.20;102580.56;5058405;28;20025;-61
2022/12/18 08:28:34;;;;;;;24.13;12.15;;;;;;;-4.05;80.87;102573.69;5055829;28;20028;-62
2022/12/18 08:31:00;;;;;;;25.88;12.20;;;;;;;-3.89;82.53;102567.44;5037459;28;20493;-62
2022/12/18 08:33:26;;;;;;;22.50;12.32;;;;;;;-3.70;81.40;102570.09;5055142;28;20031;-61
2022/12/18 08:35:51;;;;;;;23.70;11.27;;;;;;;-3.61;80.58;102561.56;5055505;28;20021;-64
2022/12/18 08:38:17;;;;;;;23.30;11.70;;;;;;;-3.44;80.64;102562.25;5055472;28;20040;-62
2022/12/18 08:40:42;;;;;;;21.75;11.57;;;;;;;-3.28;80.11;102556.06;5054958;28;20061;-63
2022/12/18 08:45:55;;;;;;;23.98;11.20;;;;;;;-3.37;79.44;102544.88;5055531;28;20087;-62
2022/12/18 08:48:20;;;;;;;21.75;11.27;;;;;;;-3.32;79.78;102553.06;5055080;28;20017;-62
2022/12/18 08:50:59;;;;;;;24.17;11.77;;;;;;;-3.39;78.88;102545.50;5054949;28;20029;-61
2022/12/18 08:53:24;;;;;;;18.65;9.90;;;;;;;-3.40;79.65;102535.91;5054971;28;20036;-61
2022/12/18 08:55:50;;;;;;;20.63;11.10;;;;;;;-3.43;79.34;102522.72;5054850;28;20104;-61
2022/12/18 08:58:15;;;;;;;20.58;10.75;;;;;;;-3.31;80.04;102526.44;5054918;28;20458;-61
2022/12/18 09:00:41;;;;;;;21.52;11.15;;;;;;;-3.16;79.79;102522.72;5054805;28;20536;-61
2022/12/18 09:03:12;;;;;;;21.80;11.38;;;;;;;-3.09;79.47;102527.66;5036778;28;20060;-61
2022/12/18 09:05:37;;;;;;;23.52;11.90;;;;;;;-3.16;79.67;102525.28;5054599;28;20057;-61
2022/12/18 09:08:03;;;;;;;21.90;11.18;;;;;;;-3.14;79.68;102528.91;5054748;28;20514;-61
2022/12/18 09:10:28;;;;;;;25.77;13.40;;;;;;;-3.09;79.06;102527.66;5054548;28;20035;-62
2022/12/18 09:12:53;;;;;;;21.10;10.98;;;;;;;-2.99;79.25;102533.69;5054532;28;20036;-62
2022/12/18 09:15:19;;;;;;;22.42;11.25;;;;;;;-2.91;78.59;102538.81;5054701;28;20131;-62
2022/12/18 09:17:44;;;;;;;21.80;12.10;;;;;;;-2.92;78.18;102534.38;5054350;28;20052;-61
2022/12/18 09:20:10;;;;;;;22.42;11.45;;;;;;;-2.89;79.16;102549.28;5054413;28;20024;-61
2022/12/18 09:22:35;;;;;;;22.95;10.73;;;;;;;-2.86;79.09;102558.25;5054177;28;20055;-62
2022/12/18 09:25:00;;;;;;;23.40;11.35;;;;;;;-2.90;78.73;102561.31;5054312;28;20064;-62
2022/12/18 09:27:26;;;;;;;15.68;8.93;;;;;;;-2.82;78.65;102562.94;5054124;28;20110;-62
2022/12/18 09:29:51;;;;;;;22.00;11.52;;;;;;;-2.85;78.83;102560.06;5054341;28;20048;-62
2022/12/18 09:32:17;;;;;;;21.52;10.90;;;;;;;-2.86;78.71;102555.66;5053818;28;20110;-62
2022/12/18 09:34:42;;;;;;;21.88;10.65;;;;;;;-2.87;79.34;102543.50;5019653;28;20025;-62
2022/12/18 09:37:07;;;;;;;22.10;10.50;;;;;;;-2.79;79.73;102545.06;5054282;28;20113;-62
2022/12/18 09:39:33;;;;;;;24.38;11.77;;;;;;;-2.73;79.38;102536.09;5054073;28;20212;-63
2022/12/18 09:41:58;;;;;;;24.70;12.07;;;;;;;-2.61;79.33;102532.94;5053876;28;20032;-63
2022/12/18 09:44:30;;;;;;;25.27;11.98;;;;;;;-2.50;79.63;102530.41;5054144;28;20078;-63
2022/12/18 09:47:17;;;;;;;25.60;12.93;;;;;;;-2.49;78.28;102521.84;5054305;28;20047;-62
2022/12/18 09:49:45;;;;;;;23.17;10.32;;;;;;;-2.54;78.72;102516.25;5053974;28;20047;-62
2022/12/18 09:52:17;;;;;;;23.73;11.82;;;;;;;-2.57;79.01;102516.91;5053788;28;20036;-61
2022/12/18 09:54:45;;;;;;;25.92;11.73;;;;;;;-2.52;79.55;102512.16;5053086;28;20067;-61
2022/12/18 09:57:15;;;;;;;23.10;11.85;;;;;;;-2.58;79.27;102501.22;5035623;28;20028;-62
2022/12/18 09:59:43;;;;;;;21.80;11.23;;;;;;;-2.58;79.27;102496.97;5064429;28;20032;-63
2022/12/18 10:02:18;;;;;;;22.33;11.30;;;;;;;-2.54;79.30;102490.38;5073108;28;20031;-63
2022/12/18 10:04:55;;;;;;;25.38;11.75;;;;;;;-2.45;79.28;102504.13;5072289;28;20063;-62
2022/12/18 10:07:46;;;;;;;22.00;11.23;;;;;;;-2.41;79.09;102510.50;5073668;28;20051;-62
2022/12/18 10:10:33;;;;;;;21.15;10.68;;;;;;;-2.35;80.37;102518.84;5073220;28;20074;-62
2022/12/18 10:13:06;;;;;;;22.42;11.55;;;;;;;-2.27;79.03;102513.56;5073280;28;20490;-63
2022/12/18 10:15:44;;;;;;;;;;;;;;;-2.22;79.20;102511.38;5073999;28;20363;-62
2022/12/18 10:18:50;;;;;;;24.75;11.27;;;;;;;-2.27;79.05;102503.22;5073191;28;19997;-61
2022/12/18 10:21:32;;;;;;;23.65;11.52;;;;;;;-2.18;79.50;102499.63;5073320;28;20104;-61
2022/12/18 10:24:42;;;;;;;23.67;11.70;;;;;;;-2.14;79.04;102510.38;5073327;28;20020;-62
2022/12/18 10:27:21;;;;;;;22.65;11.20;;;;;;;-2.10;79.06;102502.13;5072956;28;20028;-62
2022/12/18 10:29:46;;;;;;;22.13;11.07;;;;;;;-2.09;78.78;102490.06;5073080;28;20393;-61
2022/12/18 10:32:18;;;;;;;23.67;11.75;;;;;;;-2.05;78.95;102492.16;5072687;28;20051;-62
2022/12/18 10:34:48;;;;;;;27.88;12.48;;;;;;;-2.06;79.19;102479.97;5072666;28;20027;-60
2022/12/18 10:37:20;;;;;;;27.13;11.77;;;;;;;-2.06;79.12;102485.13;5072758;28;20029;-62
2022/12/18 10:40:04;;;;;;;27.90;13.52;;;;;;;-2.10;78.98;102475.28;5072873;28;20371;-60
2022/12/18 10:42:29;;;;;;;20.80;11.50;;;;;;;-2.06;79.42;102473.09;5077395;28;20119;-61
2022/12/18 10:45:17;;;;;;;24.83;13.10;;;;;;;-2.02;78.99;102454.47;5074932;28;20424;-60
2022/12/18 10:47:52;;;;;;;26.88;12.13;;;;;;;-2.00;80.11;102452.03;5075958;28;20448;-61
2022/12/18 10:50:34;;;;;;;23.52;12.55;;;;;;;-1.93;78.81;102453.44;5092930;28;20055;-62
2022/12/18 10:53:02;;;;;;;24.80;12.70;;;;;;;-1.93;79.60;102445.66;5092404;28;20032;-62
2022/12/18 10:55:38;;;;;;;22.35;11.45;;;;;;;-1.91;79.43;102445.03;5092932;28;20392;-62
2022/12/18 10:58:23;;;;;;;23.33;11.70;;;;;;;-1.83;79.22;102437.94;5092697;28;20420;-64
2022/12/18 11:01:05;;;;;;;25.42;14.02;;;;;;;-1.83;78.90;102433.66;5092841;28;20031;-62
2022/12/18 11:03:40;;;;;;;23.15;11.30;;;;;;;-1.81;78.73;102426.91;5092462;28;20488;-61
2022/12/18 11:06:24;;;;;;;27.92;13.90;;;;;;;-1.77;78.56;102420.31;5074656;28;20428;-62
2022/12/18 11:09:01;;;;;;;22.05;12.02;;;;;;;-1.74;78.41;102418.00;5074425;28;20024;-62
2022/12/18 11:11:27;;;;;;;21.85;11.60;;;;;;;-1.71;78.97;102425.09;5092500;28;20024;-63
2022/12/18 11:13:53;;;;;;;21.95;12.10;;;;;;;-1.72;78.67;102426.78;5092776;28;20020;-61
2022/12/18 11:16:19;;;;;;;22.35;11.70;;;;;;;-1.69;78.73;102432.25;5092151;28;20030;-64
2022/12/18 11:18:46;;;;;;;23.13;11.85;;;;;;;-1.66;78.58;102429.03;5092694;28;20488;-61
2022/12/18 11:21:13;;;;;;;20.88;11.52;;;;;;;-1.60;77.74;102433.03;5092520;28;20487;-61
2022/12/18 11:23:50;;;;;;;23.02;11.43;;;;;;;-1.62;77.76;102428.50;5092536;28;20028;-61
2022/12/18 11:26:16;;;;;;;24.17;12.10;;;;;;;-1.55;78.18;102429.13;5093040;28;20028;-63
2022/12/18 11:28:47;;;;;;;25.52;11.90;;;;;;;-1.53;77.45;102414.63;5093113;28;20488;-62